Earlysville, VA

12:53 PM EST on December 21, 2014 (GMT -0500)
Ardwood | Change Station
CLOSE
Current Station
Personal Weather Station
Location: Earlysville, VA
Elevation: 476 ft
Nearby Weather Stations

Elev 476 ft 38.11 °N, 78.49 °W | Updated 6 seconds ago

Overcast
Overcast
42.9 °F
Feels Like 43 °F
N
3.0
Wind Variable Wind from South
Gusts 4.0 mph

Today
High -- | Low -- °F
--% Chance of Precip.
Yesterday
High -- | Low -- °F
Precip. -- in
7:26 AM 4:57 PM
Waning Crescent, 0% visible
Pressure 30.32 in
Visibility 10.0 miles
Clouds Overcast 5000 ft
Windchill 43 °F
Dew Point 31 °F
Humidity 62%
Rainfall 0.00 in
Snow Depth Not available.
UV 1 out of 12
Pollen .10 out of 12
Air Quality Not available.
Flu Activity Not available.
METAR KCHO 211653Z 00000KT 10SM OVC050 04/M03 A3031 RMK AO2 SLP268 T00391033

More Conditions Fewer Conditions

Pressure 30.32 in
Visibility 10.0 miles
Clouds Overcast 5000 ft
Windchill 43 °F
Dew Point 31 °F
Humidity 62%
Rainfall 0.00 in
Snow Depth Not available.
UV 1 out of 12
Pollen .10 out of 12
Air Quality Not available.
Flu Activity Not available.
METAR KCHO 211653Z 00000KT 10SM OVC050 04/M03 A3031 RMK AO2 SLP268 T00391033

More Conditions Fewer Conditions

10-Day Weather Forecast

Almanac

Astronomy

Dec. 21, 2014 Rise Set
Actual Time
Civil Twilight
Nautical Twilight
Astronomical Twilight
Moon
Length of Visible Light
Length of Day
Tomorrow will be .
, % of the Moon is Illuminated

Today's Extremes

State Highs State Lows

Community

WunderPhotos

Upload Photos

1,779,434 photos uploaded!

WunderBlogs® & News

Nearby

Air Quality

  Air Quality AQ Index Pollutant
Not available.

Snow Depth

Station Depth Elevation

Earthquake Activity

City Distance Mag. Time & Date
Minimum magnitude displayed is 2.5.

Coastal Water Temperatures

Place Temperature

Nearby Weather Stations